M I D A S
Marine Information and Data Acquisition System
Tripno 447 of the Zeeleeuw from 2003-03-18 07:55:48 to 2003-03-18 14:00:53
Back to CruiseResearch ActivitiesStationsMapUnderway DataData graphs

EquipmentUnitsComment
TimeDGPSUTC
LatitudeDGPSDM.mWGS84
LongitudeDGPSDM.mWGS84
HeadingGyrodeg 
SOGDGPSknotsSpeed over ground
COGDGPSdegCourse over ground
DepthEcho soundermeters200 kHz
Missing or incorrect values are displayed as -999
Navigation data collected by the RV Zeeleeuw from 2003-03-18 07:55:48 to 2003-03-18 14:00:53
Time Latitude Longitude Heading SOG COG Depth
2003-03-18 07:56:52 51°13.68 2°55.914 111.5 0.1 182 6.6
2003-03-18 07:57:54 51°13.685 2°55.872 100.8 2.9 280 -999
2003-03-18 07:58:54 51°13.685 2°55.781 82 3.5 262 -999
2003-03-18 07:59:53 51°13.687 2°55.746 51.8 0.6 359 9.1
2003-03-18 08:00:53 51°13.725 2°55.741 344 3.8 341 8.1
2003-03-18 08:01:53 51°13.813 2°55.649 334.8 8.4 329 8.8
2003-03-18 08:02:52 51°13.957 2°55.544 340.7 9.8 335 8.6
2003-03-18 08:03:53 51°14.107 2°55.433 339.7 9.8 335 8.7
2003-03-18 08:04:53 51°14.242 2°55.297 323.7 9.5 319 8.7
2003-03-18 08:05:53 51°14.339 2°55.095 305.5 10.1 302 8.8
2003-03-18 08:06:53 51°14.408 2°54.813 293.8 12.5 285 9.4
2003-03-18 08:07:53 51°14.488 2°54.502 314.4 12.9 303 9.2
2003-03-18 08:08:52 51°14.652 2°54.289 338.1 13.1 327 9.1
2003-03-18 08:09:53 51°14.849 2°54.119 342.5 13.3 332 8.1
2003-03-18 08:10:53 51°15.041 2°53.96 342.7 13.1 332 8
2003-03-18 08:11:52 51°15.231 2°53.801 342.7 13.3 332 8.5
2003-03-18 08:12:52 51°15.426 2°53.628 342.5 13.5 330 9.1
2003-03-18 08:13:53 51°15.625 2°53.444 341.9 13.6 329 10
2003-03-18 08:14:53 51°15.827 2°53.307 357 13 345 10.6
2003-03-18 08:15:53 51°16.035 2°53.196 350.5 13.4 340 11
2003-03-18 08:16:53 51°16.244 2°53.08 350.7 13.4 341 11.4
2003-03-18 08:17:53 51°16.453 2°52.961 350.5 13.3 341 11.2
2003-03-18 08:18:53 51°16.66 2°52.847 351.1 13 341 10.2
2003-03-18 08:19:53 51°16.863 2°52.736 350.7 12.6 341 8.2
2003-03-18 08:20:53 51°17.066 2°52.623 350.2 13.2 340 8.6
2003-03-18 08:21:54 51°17.272 2°52.506 350.2 13 340 8.9
2003-03-18 08:22:54 51°17.48 2°52.411 355.9 12.9 346 9.3
2003-03-18 08:23:54 51°17.687 2°52.322 355.4 12.9 345 9.3
2003-03-18 08:24:53 51°17.891 2°52.233 355.6 12.9 345 9.4
2003-03-18 08:25:54 51°18.103 2°52.137 354.5 13.1 343 9.7
2003-03-18 08:26:54 51°18.312 2°52.034 354 13.1 342 10.3
2003-03-18 08:27:54 51°18.521 2°51.927 353.6 13.2 341 11.3
2003-03-18 08:28:54 51°18.728 2°51.818 354 13 341 12.5
2003-03-18 08:29:52 51°18.928 2°51.711 354.4 12.9 341 13.4
2003-03-18 08:30:54 51°19.14 2°51.591 354.1 13.1 340 14.5
2003-03-18 08:31:54 51°19.344 2°51.474 354.1 13.1 340 14.6
2003-03-18 08:32:53 51°19.547 2°51.361 354.7 13.1 342 14.3
2003-03-18 08:33:53 51°19.754 2°51.248 354.4 13.1 341 13.3
2003-03-18 08:34:53 51°19.962 2°51.144 353.6 13.2 342 12
2003-03-18 08:35:53 51°20.173 2°51.033 353.9 13.5 341 13.2
2003-03-18 08:36:53 51°20.384 2°50.92 354.2 13.5 341 13.6
2003-03-18 08:37:53 51°20.597 2°50.802 353.9 13.6 340 17
2003-03-18 08:38:54 51°20.813 2°50.68 354 13.5 340 20.1
2003-03-18 08:39:53 51°21.017 2°50.555 354.3 13.5 340 22.3
2003-03-18 08:40:54 51°21.231 2°50.422 354.5 13.6 339 22.7
2003-03-18 08:41:54 51°21.445 2°50.297 354.3 13.6 340 22.2
2003-03-18 08:42:54 51°21.657 2°50.185 354.1 13.3 341 22
2003-03-18 08:43:54 51°21.862 2°50.07 354.4 13.1 341 21.9
2003-03-18 08:44:54 51°22.07 2°49.963 353.9 13.2 342 22.8
2003-03-18 08:45:53 51°22.274 2°49.853 354.9 13.2 343 22.1
2003-03-18 08:46:53 51°22.486 2°49.752 353.9 13.2 343 20.2
2003-03-18 08:47:54 51°22.699 2°49.652 353.8 13 343 15.6
2003-03-18 08:48:54 51°22.904 2°49.555 354.3 12.9 343 14.8
2003-03-18 08:49:54 51°23.108 2°49.453 353.5 12.8 342 14.4
2003-03-18 08:50:54 51°23.313 2°49.347 354.7 13 342 19.7
2003-03-18 08:51:54 51°23.518 2°49.237 355.2 12.9 342 21.1
2003-03-18 08:52:54 51°23.725 2°49.149 0.1 12.9 347 21.9
2003-03-18 08:53:54 51°23.934 2°49.075 0.6 12.9 347 22.1
2003-03-18 08:54:54 51°24.144 2°49.014 3.3 12.8 351 22.7
2003-03-18 08:55:54 51°24.354 2°48.964 3.6 12.9 351 22.2
2003-03-18 08:56:53 51°24.562 2°48.918 4.6 12.9 352 21.2
2003-03-18 08:57:54 51°24.778 2°48.871 4.3 13 353 20.1
2003-03-18 08:58:54 51°24.993 2°48.83 4.2 13 353 23.6
2003-03-18 08:59:54 51°25.207 2°48.788 4.2 13 353 25.3
2003-03-18 09:00:54 51°25.415 2°48.689 349.6 13.3 338 27.1
2003-03-18 09:01:53 51°25.611 2°48.538 346.7 13.3 335 23.7
2003-03-18 09:02:54 51°25.794 2°48.406 348.5 10.3 336 23.3
2003-03-18 09:03:54 51°25.92 2°48.365 23.2 5.9 7 23.2
2003-03-18 09:04:54 51°25.973 2°48.435 49.3 3.6 45 23.2
2003-03-18 09:05:54 51°25.993 2°48.465 54.4 0.3 71 23.5
2003-03-18 09:06:54 51°25.989 2°48.474 55.8 0.2 126 23.4
2003-03-18 09:07:52 51°25.987 2°48.473 47.5 0.2 209 23.2
2003-03-18 09:08:54 51°25.984 2°48.465 39.5 0.4 244 23.3
2003-03-18 09:09:54 51°25.98 2°48.456 44.1 0.4 238 23.2
2003-03-18 09:10:53 51°25.977 2°48.446 42.2 0.5 248 23.4
2003-03-18 09:11:54 51°25.975 2°48.434 33.7 0.5 304 23.2
2003-03-18 09:12:54 51°25.984 2°48.427 34.1 0.6 341 23.4
2003-03-18 09:13:54 51°25.989 2°48.416 34.6 0.5 285 23.3
2003-03-18 09:14:54 51°25.986 2°48.403 47.1 0.6 235 23.4
2003-03-18 09:15:54 51°25.979 2°48.395 65.3 0.6 176 23.2
2003-03-18 09:16:54 51°25.971 2°48.398 56.8 0.4 167 23.4
2003-03-18 09:17:53 51°25.97 2°48.398 43.6 0.5 310 23.1
2003-03-18 09:18:54 51°25.97 2°48.4 45.4 0.1 71 23.5
2003-03-18 09:19:54 51°25.973 2°48.397 38.6 0.3 326 23.2
2003-03-18 09:20:54 51°25.977 2°48.396 48.7 0.1 43 23.5
2003-03-18 09:21:54 51°25.979 2°48.399 44.5 0.2 38 23.5
2003-03-18 09:22:54 51°25.981 2°48.403 48.4 0.2 68 23.4
2003-03-18 09:23:53 51°25.982 2°48.406 47.6 0.1 121 23.6
2003-03-18 09:24:52 51°25.977 2°48.405 47 0.3 220 23.6
2003-03-18 09:25:54 51°25.97 2°48.401 47.3 0.5 212 23.5
2003-03-18 09:26:54 51°25.966 2°48.39 42.5 0.5 225 23.6
2003-03-18 09:27:54 51°25.959 2°48.38 39.9 0.6 235 23.4
2003-03-18 09:28:54 51°25.952 2°48.366 38.3 0.8 245 23.4
2003-03-18 09:29:54 51°25.958 2°48.363 43.8 1.6 32 23.5
2003-03-18 09:30:54 51°25.994 2°48.414 48.2 2.7 45 23.5
2003-03-18 09:31:54 51°26.011 2°48.454 51 1.2 53 23.5
2003-03-18 09:32:53 51°26.018 2°48.471 46.3 0.5 55 23.5
2003-03-18 09:33:54 51°26.022 2°48.475 42.8 0.1 32 23.4
2003-03-18 09:34:53 51°26.02 2°48.47 36.9 0.8 281 23.4
2003-03-18 09:35:54 51°26.018 2°48.457 34.4 0.6 251 23.6
2003-03-18 09:36:54 51°26.015 2°48.444 35.3 0.5 243 23.8
2003-03-18 09:37:54 51°26.011 2°48.434 40.2 0.4 239 23.9
2003-03-18 09:38:54 51°26.007 2°48.427 45.4 0.3 212 24
2003-03-18 09:39:54 51°26.005 2°48.423 42.9 0.2 239 23.8
2003-03-18 09:40:53 51°26.003 2°48.418 32.6 0.4 264 23.6
2003-03-18 09:41:54 51°26.002 2°48.408 36 0.3 259 23.8
2003-03-18 09:42:54 51°26 2°48.402 44.2 0.3 234 23.8
2003-03-18 09:43:54 51°25.995 2°48.398 44.2 0.3 195 23.5
2003-03-18 09:44:54 51°25.991 2°48.393 38 0.3 231 23.8
2003-03-18 09:45:54 51°25.989 2°48.383 33.1 0.4 249 23.8
2003-03-18 09:46:53 51°25.987 2°48.374 34.2 0.3 262 23.8
2003-03-18 09:47:54 51°26.015 2°48.42 65.1 4 67 23.9
2003-03-18 09:48:54 51°26.018 2°48.524 63 2.7 75 23.7
2003-03-18 09:49:54 51°26.013 2°48.557 74.3 0.9 164 24
2003-03-18 09:50:53 51°25.996 2°48.557 68.4 0.9 176 24
2003-03-18 09:51:54 51°25.983 2°48.556 49.8 0.6 182 24.4
2003-03-18 09:52:54 51°25.975 2°48.548 24.5 0.5 241 24.4
2003-03-18 09:53:54 51°25.974 2°48.529 12.3 0.8 272 24.2
2003-03-18 09:54:54 51°25.975 2°48.508 13.5 0.8 276 24
2003-03-18 09:55:54 51°25.975 2°48.488 19 0.6 266 24.1
2003-03-18 09:56:54 51°25.973 2°48.474 30.7 0.6 238 24
2003-03-18 09:57:54 51°25.967 2°48.461 29.7 0.6 241 24
2003-03-18 09:58:54 51°25.963 2°48.448 25.3 0.6 253 24
2003-03-18 09:59:54 51°25.96 2°48.433 29.5 0.5 254 24
2003-03-18 10:00:54 51°25.957 2°48.422 37.4 0.5 239 24
2003-03-18 10:01:54 51°25.952 2°48.412 38 0.5 230 24
2003-03-18 10:02:53 51°25.953 2°48.408 37.4 1.4 26 24.1
2003-03-18 10:03:54 51°26.008 2°48.461 33.4 4.7 30 23.9
2003-03-18 10:04:54 51°26.04 2°48.486 47.1 0.3 71 24.3
2003-03-18 10:05:54 51°26.038 2°48.494 51 0.3 124 24.2
2003-03-18 10:06:54 51°26.035 2°48.497 36 0.1 157 24.1
2003-03-18 10:07:53 51°26.034 2°48.499 43.9 0.2 152 23.9
2003-03-18 10:08:54 51°26.029 2°48.497 44.1 0.3 194 23.1
2003-03-18 10:09:54 51°26.024 2°48.492 38.3 0.4 206 23.6
2003-03-18 10:10:54 51°26.017 2°48.486 32 0.5 224 24.1
2003-03-18 10:11:54 51°26.011 2°48.474 28.3 0.6 223 24.1
2003-03-18 10:12:54 51°26.004 2°48.461 27.8 0.6 226 24.2
2003-03-18 10:13:54 51°25.994 2°48.446 28.3 0.6 218 24.4
2003-03-18 10:14:54 51°25.986 2°48.433 31.2 0.6 225 24.6
2003-03-18 10:15:54 51°25.979 2°48.422 38.2 0.6 223 24.4
2003-03-18 10:16:54 51°25.972 2°48.413 37.5 0.5 222 24.2
2003-03-18 10:17:54 51°25.967 2°48.406 29.8 0.4 223 24.3
2003-03-18 10:18:54 51°25.963 2°48.395 27.2 0.4 244 24.1
2003-03-18 10:19:54 51°25.959 2°48.389 34.3 0.2 230 24.5
2003-03-18 10:20:54 51°25.955 2°48.383 42.8 0.3 199 24.4
2003-03-18 10:21:54 51°25.951 2°48.387 49.3 0.3 171 24.2
2003-03-18 10:22:54 51°25.941 2°48.386 56.8 0.5 167 24.5
2003-03-18 10:23:54 51°25.931 2°48.392 62.2 0.6 150 24.4
2003-03-18 10:24:53 51°25.955 2°48.463 46 4.5 48 24.5
2003-03-18 10:25:54 51°26.032 2°48.472 8.7 4.6 359 22.9
2003-03-18 10:26:54 51°26.063 2°48.477 34.6 0.1 279 24.8
2003-03-18 10:27:54 51°26.061 2°48.477 49.2 0.2 162 24.6
2003-03-18 10:28:54 51°26.059 2°48.484 51.8 0.4 124 24.6
2003-03-18 10:29:54 51°26.056 2°48.491 44 0.3 115 24.5
2003-03-18 10:30:54 51°26.055 2°48.492 26.8 0.1 7 24.8
2003-03-18 10:31:54 51°26.069 2°48.506 38.4 2.5 37 24.6
2003-03-18 10:32:54 51°26.078 2°48.606 100.8 5 104 25.1
2003-03-18 10:33:54 51°26.002 2°48.69 173.1 6.4 170 25
2003-03-18 10:34:54 51°25.887 2°48.686 181.5 7.3 179 25
2003-03-18 10:35:54 51°25.719 2°48.631 203.2 12.3 199 25.1
2003-03-18 10:36:54 51°25.523 2°48.487 209.7 13.7 206 26.2
2003-03-18 10:37:54 51°25.314 2°48.301 213.6 14.2 210 30.2
2003-03-18 10:38:54 51°25.107 2°48.112 214.8 14.4 211 31
2003-03-18 10:39:54 51°24.903 2°47.921 214.9 14.2 211 30
2003-03-18 10:40:54 51°24.699 2°47.731 214.2 14.1 210 30.5
2003-03-18 10:41:54 51°24.493 2°47.539 214.8 14.3 211 30
2003-03-18 10:42:54 51°24.292 2°47.348 214.3 14.3 210 27.2
2003-03-18 10:43:54 51°24.094 2°47.139 219.9 14.1 215 28.5
2003-03-18 10:44:54 51°23.905 2°46.917 220.9 14.1 216 27.7
2003-03-18 10:45:54 51°23.713 2°46.696 220.5 14.2 216 27.8
2003-03-18 10:46:54 51°23.518 2°46.476 219.1 14.2 215 27.7
2003-03-18 10:47:54 51°23.329 2°46.25 225.8 14.2 221 26.5
2003-03-18 10:48:54 51°23.181 2°45.969 238.7 13.9 234 27.1
2003-03-18 10:49:53 51°23.043 2°45.681 235.5 13.9 231 28.5
2003-03-18 10:50:54 51°22.895 2°45.389 236.2 14 231 28.7
2003-03-18 10:51:54 51°22.732 2°45.121 225.9 14.1 221 25.5
2003-03-18 10:52:54 51°22.542 2°44.906 216.6 14.1 211 27.5
2003-03-18 10:53:54 51°22.336 2°44.734 207.1 13.9 201 26.8
2003-03-18 10:54:54 51°22.109 2°44.639 200.3 14 195 25.2
2003-03-18 10:55:54 51°21.885 2°44.538 204.1 14.3 198 25
2003-03-18 10:56:54 51°21.669 2°44.396 209.4 14 203 24.6
2003-03-18 10:57:54 51°21.454 2°44.251 210 13.7 203 24.6
2003-03-18 10:58:54 51°21.244 2°44.105 210.1 13.9 204 25.4
2003-03-18 10:59:54 51°21.035 2°43.956 211.4 13.7 205 26.6
2003-03-18 11:00:54 51°20.828 2°43.809 209.4 13.7 203 27.9
2003-03-18 11:01:54 51°20.621 2°43.661 210.1 13.7 204 28.6
2003-03-18 11:02:54 51°20.414 2°43.514 211.2 13.7 205 29.2
2003-03-18 11:03:54 51°20.213 2°43.349 209.7 13.4 206 28.6
2003-03-18 11:04:54 51°20.011 2°43.185 210.6 13.8 207 28.6
2003-03-18 11:05:54 51°19.811 2°43.025 209.7 13.5 207 28.3
2003-03-18 11:06:54 51°19.611 2°42.865 209.9 13.4 206 27.8
2003-03-18 11:07:54 51°19.41 2°42.702 211.2 13.6 208 26.7
2003-03-18 11:08:54 51°19.211 2°42.541 210.1 13.3 207 26.1
2003-03-18 11:09:54 51°19.014 2°42.379 209.8 13.4 207 26
2003-03-18 11:10:54 51°18.818 2°42.218 211.9 13.2 209 26
2003-03-18 11:11:53 51°18.627 2°42.064 210.1 13.1 207 25.8
2003-03-18 11:12:54 51°18.428 2°41.904 210.5 13.1 207 26.1
2003-03-18 11:13:54 51°18.232 2°41.746 210.6 13.1 207 25.8
2003-03-18 11:14:54 51°18.039 2°41.59 210.3 13.1 207 25.8
2003-03-18 11:15:54 51°17.843 2°41.439 209.5 13.1 206 26
2003-03-18 11:16:54 51°17.648 2°41.289 208.8 13 204 25.7
2003-03-18 11:17:54 51°17.454 2°41.136 210.6 12.9 207 25.9
2003-03-18 11:18:54 51°17.257 2°40.98 210.7 13.1 207 26
2003-03-18 11:19:54 51°17.061 2°40.825 210.1 13.1 206 25.8
2003-03-18 11:20:54 51°16.867 2°40.673 211.6 13.1 208 25.5
2003-03-18 11:21:54 51°16.673 2°40.516 209.6 13.2 206 25.1
2003-03-18 11:22:54 51°16.467 2°40.39 204.7 13.4 200 24.8
2003-03-18 11:23:54 51°16.26 2°40.265 205.2 13.2 200 24.2
2003-03-18 11:24:54 51°16.053 2°40.142 205.2 13.4 201 23.4
2003-03-18 11:25:54 51°15.844 2°40.019 205 13.4 200 22.7
2003-03-18 11:26:53 51°15.639 2°39.899 205.4 13.3 200 21.8
2003-03-18 11:27:54 51°15.43 2°39.779 203.6 13.1 198 20.9
2003-03-18 11:28:54 51°15.225 2°39.658 204.3 13 199 19.7
2003-03-18 11:29:54 51°15.016 2°39.579 199.5 13.2 193 18.8
2003-03-18 11:30:54 51°14.805 2°39.5 199.6 13 193 18.2
2003-03-18 11:31:54 51°14.594 2°39.421 200.3 12.8 193 17.1
2003-03-18 11:32:54 51°14.384 2°39.35 200 12.9 192 15.8
2003-03-18 11:33:54 51°14.177 2°39.264 206 12.7 199 16.2
2003-03-18 11:34:54 51°13.98 2°39.131 210.4 12.9 204 16.7
2003-03-18 11:35:54 51°13.791 2°38.97 215.9 12.9 210 17.3
2003-03-18 11:36:54 51°13.604 2°38.799 216.5 13 210 17.5
2003-03-18 11:37:54 51°13.415 2°38.623 216 13.2 211 17.4
2003-03-18 11:38:54 51°13.227 2°38.451 216.6 13.1 211 17.3
2003-03-18 11:39:54 51°13.041 2°38.279 215.9 12.9 211 16.8
2003-03-18 11:40:54 51°12.852 2°38.108 214.8 13 209 16.2
2003-03-18 11:41:54 51°12.666 2°37.936 215.8 12.9 211 15.9
2003-03-18 11:42:54 51°12.48 2°37.765 216.3 12.9 211 15.4
2003-03-18 11:43:54 51°12.291 2°37.597 215.1 13 209 15.2
2003-03-18 11:44:54 51°12.105 2°37.431 214.9 12.6 209 15.1
2003-03-18 11:45:54 51°11.921 2°37.265 215.6 12.8 210 15.2
2003-03-18 11:46:54 51°11.732 2°37.1 214.5 13 209 15.4
2003-03-18 11:47:54 51°11.545 2°36.929 216.3 13 211 15.6
2003-03-18 11:48:54 51°11.36 2°36.759 215.1 12.7 209 15.5
2003-03-18 11:49:54 51°11.172 2°36.591 216.1 12.9 210 15.4
2003-03-18 11:50:54 51°10.986 2°36.429 214.1 12.9 208 15.1
2003-03-18 11:51:54 51°10.798 2°36.265 214.9 12.9 209 14.7
2003-03-18 11:52:54 51°10.615 2°36.096 215.7 12.8 210 13.9
2003-03-18 11:53:54 51°10.429 2°35.929 214.7 12.8 209 14.1
2003-03-18 11:54:54 51°10.216 2°35.914 174.7 13.4 166 13.9
2003-03-18 11:55:54 51°10.016 2°36.1 153.9 14.2 143 21
2003-03-18 11:56:54 51°9.838 2°36.35 143 14.6 132 20.8
2003-03-18 11:57:54 51°9.671 2°36.633 140.6 14.7 132 19.7
2003-03-18 11:58:54 51°9.522 2°36.941 135.5 14.8 126 19
2003-03-18 11:59:54 51°9.369 2°37.222 143.6 13.3 133 16.1
2003-03-18 12:00:54 51°9.241 2°37.303 218.3 5.6 204 14.4
2003-03-18 12:01:54 51°9.176 2°37.241 211.8 4.1 197 13.9
2003-03-18 12:02:54 51°9.123 2°37.228 219.8 2.5 197 13.5
2003-03-18 12:03:53 51°9.102 2°37.202 244.1 1.3 230 13.3
2003-03-18 12:04:53 51°9.096 2°37.188 260.6 0.5 251 13.4
2003-03-18 12:05:53 51°9.096 2°37.182 271 0.3 320 13.3
2003-03-18 12:06:54 51°9.099 2°37.182 271.9 0.2 352 13.3
2003-03-18 12:07:54 51°9.103 2°37.18 272.1 0.2 1 13.5
2003-03-18 12:08:54 51°9.107 2°37.181 272.5 0.3 5 13.4
2003-03-18 12:09:53 51°9.111 2°37.181 273.4 0.2 9 13.6
2003-03-18 12:10:53 51°9.114 2°37.182 275.8 0.3 357 13.6
2003-03-18 12:11:54 51°9.119 2°37.185 278.3 0.3 11 13.5
2003-03-18 12:12:53 51°9.125 2°37.184 277.7 0.3 6 13.6
2003-03-18 12:13:53 51°9.13 2°37.186 276.7 0.3 7 13.6
2003-03-18 12:14:54 51°9.135 2°37.188 275.3 0.3 352 13.7
2003-03-18 12:15:54 51°9.14 2°37.185 275.8 0.3 343 13.7
2003-03-18 12:16:54 51°9.143 2°37.184 273.3 0.2 352 13.8
2003-03-18 12:17:53 51°9.148 2°37.179 271.5 0.3 1 13.7
2003-03-18 12:18:54 51°9.15 2°37.183 273.7 0.3 19 13.8
2003-03-18 12:19:54 51°9.156 2°37.187 279.4 0.4 38 13.8
2003-03-18 12:20:54 51°9.161 2°37.197 283 0.5 51 13.9
2003-03-18 12:21:53 51°9.172 2°37.195 307.3 2.1 325 13.9
2003-03-18 12:22:54 51°9.241 2°37.211 31.1 5.5 32 14.8
2003-03-18 12:23:54 51°9.261 2°37.362 120.8 6.4 106 14.3
2003-03-18 12:24:54 51°9.183 2°37.439 203.9 5 187 13.7
2003-03-18 12:25:54 51°9.129 2°37.343 238.9 5.3 233 13.4
2003-03-18 12:26:54 51°9.108 2°37.242 258.1 2.6 259 13.3
2003-03-18 12:27:54 51°9.105 2°37.22 265.4 0.5 279 13.3
2003-03-18 12:28:53 51°9.105 2°37.206 260.8 0.5 269 13.4
2003-03-18 12:29:53 51°9.099 2°37.188 246.6 0.6 231 13.4
2003-03-18 12:30:54 51°9.098 2°37.192 236.6 0.4 194 13.3
2003-03-18 12:31:53 51°9.087 2°37.191 226.2 0.7 187 13.2
2003-03-18 12:32:53 51°9.079 2°37.196 232.1 0.4 148 13.1
2003-03-18 12:33:54 51°9.075 2°37.199 238.7 0.2 152 13
2003-03-18 12:34:53 51°9.072 2°37.202 246.8 0.2 131 13
2003-03-18 12:35:54 51°9.072 2°37.207 252.2 0.2 93 13.1
2003-03-18 12:36:53 51°9.073 2°37.214 259.7 0.3 58 13.1
2003-03-18 12:37:53 51°9.075 2°37.222 269.5 0.3 54 13
2003-03-18 12:38:54 51°9.08 2°37.229 282.8 0.4 42 13.1
2003-03-18 12:39:53 51°9.086 2°37.221 273 0.5 308 13.2
2003-03-18 12:40:54 51°9.09 2°37.215 278.7 0.4 329 13.2
2003-03-18 12:41:54 51°9.096 2°37.215 282.8 0.3 2 13.2
2003-03-18 12:42:53 51°9.102 2°37.218 286.9 0.5 14 13.3
2003-03-18 12:43:54 51°9.11 2°37.223 291.3 0.4 23 13.3
2003-03-18 12:44:53 51°9.117 2°37.23 294.3 0.5 28 13.4
2003-03-18 12:45:54 51°9.124 2°37.24 297.5 0.5 32 13.4
2003-03-18 12:46:54 51°9.131 2°37.248 299.5 0.6 47 13.4
2003-03-18 12:47:53 51°9.136 2°37.259 300.5 0.5 49 13.5
2003-03-18 12:48:54 51°9.143 2°37.271 302.9 0.5 57 13.5
2003-03-18 12:49:53 51°9.149 2°37.284 302 0.5 48 13.6
2003-03-18 12:50:54 51°9.154 2°37.296 305.1 0.5 43 13.5
2003-03-18 12:51:54 51°9.161 2°37.307 307 0.6 45 13.5
2003-03-18 12:52:54 51°9.166 2°37.322 304.5 0.5 50 13.6
2003-03-18 12:53:54 51°9.172 2°37.333 304.1 0.5 48 13.5
2003-03-18 12:54:54 51°9.178 2°37.344 303.8 0.5 55 13.6
2003-03-18 12:55:54 51°9.184 2°37.355 304.6 0.4 47 13.7
2003-03-18 12:56:54 51°9.19 2°37.366 304.9 0.5 12 13.7
2003-03-18 12:57:54 51°9.195 2°37.377 306.4 0.5 52 13.7
2003-03-18 12:58:54 51°9.201 2°37.386 305.6 0.5 43 13.8
2003-03-18 12:59:53 51°9.207 2°37.397 304.2 0.5 50 13.7
2003-03-18 13:00:53 51°9.211 2°37.407 301.9 0.4 39 13.8
2003-03-18 13:01:54 51°9.219 2°37.411 309.8 0.7 1 13.9
2003-03-18 13:02:54 51°9.235 2°37.413 326.4 1 2 14
2003-03-18 13:03:54 51°9.255 2°37.415 340.9 1.2 9 14.1
2003-03-18 13:04:53 51°9.276 2°37.424 355.2 1.4 17 14.2
2003-03-18 13:05:54 51°9.301 2°37.441 5.3 1.6 19 14.4
2003-03-18 13:06:54 51°9.324 2°37.459 9.4 1.6 27 14.6
2003-03-18 13:07:54 51°9.346 2°37.481 23.8 1.7 35 14.6
2003-03-18 13:08:54 51°9.374 2°37.539 72.3 4.8 62 14.8
2003-03-18 13:09:53 51°9.386 2°37.771 85.6 10.6 81 14.2
2003-03-18 13:10:54 51°9.448 2°38.092 74.8 14.2 70 13.9
2003-03-18 13:11:53 51°9.533 2°38.452 74.9 14.7 70 13.9
2003-03-18 13:12:54 51°9.618 2°38.824 73.3 14.7 69 13.7
2003-03-18 13:13:54 51°9.704 2°39.188 73.6 14.8 69 13.5
2003-03-18 13:14:54 51°9.792 2°39.552 73.6 14.7 69 13.2
2003-03-18 13:15:54 51°9.879 2°39.917 73.9 14.8 69 13.2
2003-03-18 13:16:54 51°9.968 2°40.281 71.7 14.8 67 13.2
2003-03-18 13:17:53 51°10.074 2°40.637 69.6 14.8 65 13.1
2003-03-18 13:18:53 51°10.175 2°40.992 70 14.8 66 13
2003-03-18 13:19:54 51°10.276 2°41.355 70.3 14.9 66 13.2
2003-03-18 13:20:54 51°10.369 2°41.72 72.5 14.9 68 13
2003-03-18 13:21:54 51°10.463 2°42.085 72.2 14.9 68 13.1
2003-03-18 13:22:54 51°10.555 2°42.449 72.2 14.9 68 13
2003-03-18 13:23:54 51°10.647 2°42.812 71.8 14.8 68 13.2
2003-03-18 13:24:53 51°10.739 2°43.169 72.2 14.8 68 13.3
2003-03-18 13:25:54 51°10.833 2°43.538 72.4 14.8 68 13.4
2003-03-18 13:26:54 51°10.928 2°43.902 71.8 14.8 67 13.5
2003-03-18 13:27:54 51°11.023 2°44.266 72.1 14.9 68 13.5
2003-03-18 13:28:54 51°11.116 2°44.627 72.5 14.8 68 13.6
2003-03-18 13:29:54 51°11.211 2°44.989 72.6 14.9 67 13.7
2003-03-18 13:30:54 51°11.309 2°45.353 72 15 66 13.8
2003-03-18 13:31:54 51°11.404 2°45.711 71.2 14.6 67 13.8
2003-03-18 13:32:54 51°11.52 2°46.057 65.8 14.6 61 14.1
2003-03-18 13:33:54 51°11.638 2°46.399 66.3 14.6 61 14.3
2003-03-18 13:34:53 51°11.751 2°46.727 66 14.6 62 14.3
2003-03-18 13:35:54 51°11.87 2°47.075 66 14.8 61 14.4
2003-03-18 13:36:54 51°11.986 2°47.42 66.2 14.9 61 14.5
2003-03-18 13:37:53 51°12.104 2°47.76 66.1 14.9 61 14.5
2003-03-18 13:38:54 51°12.225 2°48.111 66 14.9 61 14.6
2003-03-18 13:39:53 51°12.344 2°48.453 66.5 15 61 14.4
2003-03-18 13:40:54 51°12.465 2°48.806 66.1 15.1 61 14.3
2003-03-18 13:41:54 51°12.586 2°49.155 66.1 14.9 61 14.2
2003-03-18 13:42:53 51°12.705 2°49.495 66.1 14.9 61 14.1
2003-03-18 13:43:54 51°12.829 2°49.849 66.4 14.9 61 13.9
2003-03-18 13:44:53 51°12.947 2°50.189 66.3 14.9 61 13.8
2003-03-18 13:45:54 51°13.07 2°50.541 66.6 15 61 13.7
2003-03-18 13:46:53 51°13.192 2°50.874 63 14.9 58 13.6
2003-03-18 13:47:54 51°13.326 2°51.217 62.8 15 58 13.4
2003-03-18 13:48:54 51°13.46 2°51.557 63.3 15.2 59 13.3
2003-03-18 13:49:54 51°13.598 2°51.898 63.1 15.2 58 13.2
2003-03-18 13:50:54 51°13.73 2°52.24 62.7 15.2 58 13.2
2003-03-18 13:51:54 51°13.864 2°52.58 63.4 15.1 59 13.1
2003-03-18 13:52:54 51°13.994 2°52.918 63.1 15 58 12.9
2003-03-18 13:53:54 51°14.114 2°53.259 63.1 14.6 58 12.5
2003-03-18 13:54:54 51°14.25 2°53.558 56.7 13.6 52 12.3
2003-03-18 13:55:54 51°14.376 2°53.85 70.4 13.3 63 12.2
2003-03-18 13:56:54 51°14.449 2°54.185 87.9 13.3 81 11.9
2003-03-18 13:57:54 51°14.466 2°54.539 100.6 13.4 91 13
2003-03-18 13:58:54 51°14.421 2°54.874 117.1 12.8 109 13
2003-03-18 13:59:54 51°14.319 2°55.15 129.9 11.5 126 12.4